ASA285 PAKT-PAJN
Flight info
| Callsign | ASA285 |
|---|---|
| Flight time | 0h 39m |
| Altitude | 25000 |
| Route | ANN SAXRY |
| Aircraft | B738/M-SDE2E3FGHIRWXY/LB1 |
Departure
| Time | 2026-04-25 17:14 |
|---|---|
| Airport | Ketchikan International Airport (PAKT) |
Arrival
| Time | 2026-04-25 17:54 |
|---|---|
| Airport | Juneau International Airport (PAJN) |
| Time | Latitude | Longitude | Altitude | Speed | Heading |
|---|---|---|---|---|---|
| 2026-04-25 16:59 | 55.35653 | -131.71033 | 95 ft | 0 kts | 41° |
| 2026-04-25 17:08 | 55.35638 | -131.71057 | 95 ft | 4 kts | 43° |
| 2026-04-25 17:08 | 55.35619 | -131.71089 | 96 ft | 4 kts | 43° |
| 2026-04-25 17:08 | 55.35603 | -131.71116 | 97 ft | 0 kts | 44° |
| 2026-04-25 17:11 | 55.35604 | -131.71108 | 97 ft | 2 kts | 71° |
| 2026-04-25 17:12 | 55.35579 | -131.71080 | 96 ft | 9 kts | 162° |
| 2026-04-25 17:12 | 55.35497 | -131.70963 | 97 ft | 20 kts | 137° |
| 2026-04-25 17:12 | 55.35391 | -131.70780 | 95 ft | 23 kts | 134° |
| 2026-04-25 17:12 | 55.35273 | -131.70575 | 95 ft | 24 kts | 137° |
| 2026-04-25 17:13 | 55.35155 | -131.70386 | 95 ft | 23 kts | 137° |
| 2026-04-25 17:13 | 55.35077 | -131.70262 | 97 ft | 22 kts | 137° |
| 2026-04-25 17:13 | 55.34924 | -131.70035 | 99 ft | 21 kts | 158° |
| 2026-04-25 17:13 | 55.34849 | -131.70162 | 100 ft | 12 kts | 304° |
| 2026-04-25 17:14 | 55.34960 | -131.70354 | 95 ft | 60 kts | 316° |
| 2026-04-25 17:14 | 55.35508 | -131.71298 | 124 ft | 153 kts | 315° |
| 2026-04-25 17:14 | 55.36340 | -131.72716 | 1018 ft | 183 kts | 321° |
| 2026-04-25 17:14 | 55.37452 | -131.73791 | 2484 ft | 174 kts | 333° |
| 2026-04-25 17:15 | 55.38427 | -131.74650 | 3543 ft | 141 kts | 337° |
| 2026-04-25 17:15 | 55.39276 | -131.75285 | 4077 ft | 130 kts | 338° |
| 2026-04-25 17:15 | 55.40149 | -131.75956 | 4405 ft | 150 kts | 336° |
| 2026-04-25 17:15 | 55.41131 | -131.76716 | 5356 ft | 160 kts | 337° |
| 2026-04-25 17:16 | 55.42209 | -131.77492 | 6316 ft | 174 kts | 339° |
| 2026-04-25 17:16 | 55.43378 | -131.78253 | 7294 ft | 183 kts | 341° |
| 2026-04-25 17:16 | 55.44575 | -131.79063 | 8331 ft | 185 kts | 338° |
| 2026-04-25 17:16 | 55.45751 | -131.80002 | 9344 ft | 187 kts | 333° |
| 2026-04-25 17:17 | 55.46910 | -131.81046 | 10236 ft | 193 kts | 334° |
| 2026-04-25 17:17 | 55.48136 | -131.82141 | 10935 ft | 203 kts | 333° |
| 2026-04-25 17:17 | 55.49445 | -131.83305 | 11511 ft | 220 kts | 334° |
| 2026-04-25 17:17 | 55.50881 | -131.84506 | 11970 ft | 232 kts | 335° |
| 2026-04-25 17:18 | 55.52379 | -131.85728 | 12465 ft | 243 kts | 335° |
| 2026-04-25 17:18 | 55.53954 | -131.87003 | 12989 ft | 255 kts | 335° |
| 2026-04-25 17:18 | 55.55601 | -131.88333 | 13544 ft | 267 kts | 335° |
| 2026-04-25 17:18 | 55.57306 | -131.89708 | 14082 ft | 279 kts | 335° |
| 2026-04-25 17:19 | 55.59109 | -131.91160 | 14587 ft | 291 kts | 335° |
| 2026-04-25 17:19 | 55.60996 | -131.92679 | 15087 ft | 304 kts | 335° |
| 2026-04-25 17:19 | 55.62961 | -131.94259 | 15601 ft | 316 kts | 335° |
| 2026-04-25 17:19 | 55.64983 | -131.95886 | 16110 ft | 322 kts | 335° |
| 2026-04-25 17:20 | 55.67023 | -131.97529 | 16614 ft | 320 kts | 335° |
| 2026-04-25 17:20 | 55.69050 | -131.99164 | 17130 ft | 320 kts | 335° |
| 2026-04-25 17:20 | 55.71083 | -132.00803 | 17649 ft | 323 kts | 335° |
| 2026-04-25 17:20 | 55.73143 | -132.02465 | 18189 ft | 328 kts | 335° |
| 2026-04-25 17:21 | 55.75206 | -132.04132 | 18701 ft | 332 kts | 335° |
| 2026-04-25 17:21 | 55.77315 | -132.05838 | 19182 ft | 334 kts | 335° |
| 2026-04-25 17:21 | 55.79438 | -132.07558 | 19650 ft | 336 kts | 335° |
| 2026-04-25 17:21 | 55.81571 | -132.09288 | 20142 ft | 338 kts | 335° |
| 2026-04-25 17:22 | 55.83720 | -132.11034 | 20626 ft | 341 kts | 335° |
| 2026-04-25 17:22 | 55.85154 | -132.12200 | 20969 ft | 344 kts | 335° |
| 2026-04-25 17:22 | 55.88095 | -132.14594 | 21661 ft | 352 kts | 335° |
| 2026-04-25 17:22 | 55.90342 | -132.16426 | 22189 ft | 357 kts | 335° |
| 2026-04-25 17:23 | 55.92575 | -132.18248 | 22711 ft | 359 kts | 335° |
| 2026-04-25 17:23 | 55.94848 | -132.20105 | 23243 ft | 361 kts | 335° |
| 2026-04-25 17:23 | 55.97133 | -132.21975 | 23803 ft | 362 kts | 335° |
| 2026-04-25 17:23 | 55.99432 | -132.23858 | 24268 ft | 364 kts | 334° |
| 2026-04-25 17:24 | 56.01735 | -132.25747 | 24735 ft | 365 kts | 334° |
| 2026-04-25 17:24 | 56.04048 | -132.27647 | 25213 ft | 366 kts | 334° |
| 2026-04-25 17:24 | 56.06373 | -132.29560 | 25698 ft | 369 kts | 334° |
| 2026-04-25 17:24 | 56.08719 | -132.31493 | 26191 ft | 373 kts | 334° |
| 2026-04-25 17:25 | 56.11086 | -132.33447 | 26698 ft | 376 kts | 334° |
| 2026-04-25 17:25 | 56.13441 | -132.35393 | 27199 ft | 379 kts | 334° |
| 2026-04-25 17:25 | 56.15841 | -132.37378 | 27731 ft | 380 kts | 334° |
| 2026-04-25 17:25 | 56.18250 | -132.39372 | 28235 ft | 383 kts | 333° |
| 2026-04-25 17:26 | 56.20710 | -132.41414 | 28214 ft | 398 kts | 334° |
| 2026-04-25 17:26 | 56.23256 | -132.43530 | 28268 ft | 410 kts | 334° |
| 2026-04-25 17:26 | 56.25886 | -132.45721 | 28265 ft | 422 kts | 334° |
| 2026-04-25 17:26 | 56.28588 | -132.47972 | 28255 ft | 433 kts | 334° |
| 2026-04-25 17:27 | 56.31354 | -132.50280 | 28265 ft | 444 kts | 334° |
| 2026-04-25 17:27 | 56.34186 | -132.52647 | 28252 ft | 453 kts | 334° |
| 2026-04-25 17:27 | 56.38019 | -132.55855 | 28264 ft | 464 kts | 334° |
| 2026-04-25 17:28 | 56.45872 | -132.62448 | 28249 ft | 468 kts | 333° |
| 2026-04-25 17:28 | 56.51774 | -132.67424 | 28249 ft | 467 kts | 333° |
| 2026-04-25 17:29 | 56.57652 | -132.72399 | 28258 ft | 467 kts | 333° |
| 2026-04-25 17:29 | 56.63503 | -132.77369 | 28265 ft | 467 kts | 333° |
| 2026-04-25 17:30 | 56.69378 | -132.82377 | 28271 ft | 467 kts | 333° |
| 2026-04-25 17:30 | 56.75276 | -132.87421 | 28266 ft | 468 kts | 333° |
| 2026-04-25 17:31 | 56.81175 | -132.92484 | 28273 ft | 468 kts | 333° |
| 2026-04-25 17:31 | 56.87073 | -132.97565 | 28282 ft | 469 kts | 333° |
| 2026-04-25 17:32 | 56.92940 | -133.02636 | 28265 ft | 470 kts | 333° |
| 2026-04-25 17:32 | 56.98854 | -133.07765 | 28280 ft | 470 kts | 333° |
| 2026-04-25 17:33 | 57.04769 | -133.12913 | 28273 ft | 470 kts | 332° |
| 2026-04-25 17:33 | 57.10681 | -133.18077 | 28287 ft | 471 kts | 332° |
| 2026-04-25 17:34 | 57.16557 | -133.23230 | 28280 ft | 471 kts | 332° |
| 2026-04-25 17:34 | 57.22461 | -133.28422 | 28282 ft | 468 kts | 332° |
| 2026-04-25 17:35 | 57.28441 | -133.33707 | 28287 ft | 485 kts | 332° |
| 2026-04-25 17:35 | 57.34619 | -133.39185 | 28299 ft | 497 kts | 332° |
| 2026-04-25 17:36 | 57.40853 | -133.44726 | 28293 ft | 496 kts | 332° |
| 2026-04-25 17:36 | 57.47025 | -133.50233 | 28295 ft | 496 kts | 332° |
| 2026-04-25 17:37 | 57.53233 | -133.55798 | 28298 ft | 495 kts | 332° |
| 2026-04-25 17:37 | 57.59443 | -133.61385 | 28308 ft | 496 kts | 332° |
| 2026-04-25 17:38 | 57.64603 | -133.66044 | 28314 ft | 496 kts | 332° |
| 2026-04-25 17:38 | 57.71828 | -133.72593 | 28317 ft | 497 kts | 332° |
| 2026-04-25 17:39 | 57.78049 | -133.78255 | 28311 ft | 498 kts | 332° |
| 2026-04-25 17:39 | 57.84243 | -133.84059 | 28295 ft | 497 kts | 327° |
| 2026-04-25 17:40 | 57.89586 | -133.92053 | 28310 ft | 489 kts | 309° |
| 2026-04-25 17:40 | 57.94147 | -134.01537 | 28322 ft | 489 kts | 308° |
| 2026-04-25 17:41 | 57.98675 | -134.11004 | 28314 ft | 490 kts | 309° |
| 2026-04-25 17:41 | 58.03284 | -134.20519 | 28317 ft | 491 kts | 309° |
| 2026-04-25 17:42 | 58.07894 | -134.30005 | 28298 ft | 483 kts | 309° |
| 2026-04-25 17:42 | 58.10130 | -134.34615 | 28093 ft | 468 kts | 308° |
| 2026-04-25 17:42 | 58.12280 | -134.39061 | 27726 ft | 450 kts | 308° |
| 2026-04-25 17:43 | 58.14355 | -134.43365 | 27226 ft | 436 kts | 308° |
| 2026-04-25 17:43 | 58.15353 | -134.45440 | 26996 ft | 429 kts | 308° |
| 2026-04-25 17:44 | 58.17084 | -134.48948 | 26713 ft | 417 kts | 310° |
| 2026-04-25 17:44 | 58.19105 | -134.52762 | 26314 ft | 406 kts | 311° |
| 2026-04-25 17:44 | 58.21120 | -134.56473 | 25594 ft | 404 kts | 311° |
| 2026-04-25 17:45 | 58.23148 | -134.60191 | 24867 ft | 404 kts | 312° |
| 2026-04-25 17:45 | 58.23803 | -134.61390 | 24658 ft | 403 kts | 312° |
| 2026-04-25 17:45 | 58.27153 | -134.67516 | 23659 ft | 396 kts | 312° |
| 2026-04-25 17:45 | 58.29100 | -134.71075 | 22995 ft | 391 kts | 312° |
| 2026-04-25 17:46 | 58.31046 | -134.74635 | 22371 ft | 386 kts | 312° |
| 2026-04-25 17:46 | 58.32971 | -134.78163 | 21746 ft | 382 kts | 312° |
| 2026-04-25 17:46 | 58.35072 | -134.81259 | 21002 ft | 388 kts | 331° |
| 2026-04-25 17:46 | 58.37682 | -134.82558 | 20392 ft | 390 kts | 357° |
| 2026-04-25 17:47 | 58.40113 | -134.80875 | 17721 ft | 417 kts | 54° |
| 2026-04-25 17:47 | 58.41748 | -134.76137 | 15125 ft | 433 kts | 63° |
| 2026-04-25 17:47 | 58.42895 | -134.70654 | 14197 ft | 434 kts | 70° |
| 2026-04-25 17:47 | 58.43922 | -134.65483 | 14109 ft | 402 kts | 70° |
| 2026-04-25 17:48 | 58.47381 | -134.58228 | 13754 ft | 358 kts | 20° |
| 2026-04-25 17:48 | 58.49721 | -134.57190 | 13549 ft | 338 kts | 5° |
| 2026-04-25 17:48 | 58.52045 | -134.56789 | 12974 ft | 334 kts | 358° |
| 2026-04-25 17:49 | 58.54259 | -134.57577 | 12325 ft | 327 kts | 332° |
| 2026-04-25 17:49 | 58.55979 | -134.60216 | 11831 ft | 314 kts | 303° |
| 2026-04-25 17:49 | 58.56791 | -134.63980 | 11266 ft | 305 kts | 274° |
| 2026-04-25 17:49 | 58.56514 | -134.67928 | 10698 ft | 301 kts | 245° |
| 2026-04-25 17:50 | 58.55232 | -134.71009 | 10163 ft | 299 kts | 215° |
| 2026-04-25 17:50 | 58.53389 | -134.72794 | 9672 ft | 296 kts | 203° |
| 2026-04-25 17:50 | 58.51474 | -134.74187 | 9137 ft | 294 kts | 199° |
| 2026-04-25 17:50 | 58.49494 | -134.75107 | 8606 ft | 292 kts | 192° |
| 2026-04-25 17:51 | 58.47503 | -134.75804 | 8060 ft | 287 kts | 191° |
| 2026-04-25 17:51 | 58.45569 | -134.76450 | 7509 ft | 277 kts | 191° |
| 2026-04-25 17:51 | 58.43727 | -134.77055 | 6977 ft | 267 kts | 191° |
| 2026-04-25 17:51 | 58.41924 | -134.77590 | 6322 ft | 258 kts | 184° |
| 2026-04-25 17:52 | 58.40221 | -134.76801 | 5599 ft | 254 kts | 150° |
| 2026-04-25 17:52 | 58.39740 | -134.76133 | 5373 ft | 252 kts | 139° |
| 2026-04-25 17:52 | 58.38210 | -134.71590 | 4324 ft | 241 kts | 116° |
| 2026-04-25 17:52 | 58.37424 | -134.68746 | 2664 ft | 255 kts | 120° |
| 2026-04-25 17:53 | 58.36580 | -134.65816 | 1619 ft | 245 kts | 112° |
| 2026-04-25 17:53 | 58.36165 | -134.62836 | 705 ft | 234 kts | 101° |
| 2026-04-25 17:53 | 58.35826 | -134.59978 | 143 ft | 204 kts | 105° |
| 2026-04-25 17:53 | 58.35489 | -134.57566 | 33 ft | 173 kts | 105° |
| 2026-04-25 17:54 | 58.35317 | -134.56345 | 32 ft | 44 kts | 105° |
| 2026-04-25 17:54 | 58.35238 | -134.55781 | 30 ft | 43 kts | 105° |
| 2026-04-25 17:54 | 58.35295 | -134.55548 | 31 ft | 15 kts | 343° |
| 2026-04-25 17:54 | 58.35340 | -134.55695 | 31 ft | 13 kts | 284° |
| 2026-04-25 17:55 | 58.35363 | -134.55867 | 31 ft | 14 kts | 284° |
| 2026-04-25 17:55 | 58.35387 | -134.56045 | 31 ft | 14 kts | 284° |
| 2026-04-25 17:55 | 58.35412 | -134.56228 | 31 ft | 15 kts | 284° |
| 2026-04-25 17:55 | 58.35439 | -134.56422 | 31 ft | 16 kts | 285° |
| 2026-04-25 17:56 | 58.35468 | -134.56626 | 31 ft | 16 kts | 285° |
| 2026-04-25 17:56 | 58.35498 | -134.56836 | 30 ft | 17 kts | 285° |
| 2026-04-25 17:56 | 58.35528 | -134.57053 | 32 ft | 17 kts | 284° |
| 2026-04-25 17:56 | 58.35558 | -134.57276 | 32 ft | 18 kts | 284° |
| 2026-04-25 17:57 | 58.35588 | -134.57503 | 32 ft | 18 kts | 284° |
| 2026-04-25 17:57 | 58.35621 | -134.57735 | 32 ft | 18 kts | 285° |
| 2026-04-25 17:57 | 58.35655 | -134.57970 | 32 ft | 19 kts | 285° |
| 2026-04-25 17:57 | 58.35667 | -134.58052 | 32 ft | 19 kts | 285° |
| 2026-04-25 17:58 | 58.35704 | -134.58291 | 32 ft | 0 kts | 309° |
| 2026-04-25 17:58 | 58.35706 | -134.58292 | 32 ft | 0 kts | 329° |
| 2026-04-25 17:58 | 58.35707 | -134.58292 | 32 ft | 0 kts | 333° |
| 2026-04-25 17:59 | 58.35760 | -134.58325 | 32 ft | 6 kts | 326° |
| 2026-04-25 17:59 | 58.35789 | -134.58381 | 31 ft | 6 kts | 325° |
| 2026-04-25 17:59 | 58.35797 | -134.58387 | 30 ft | 0 kts | 340° |
| 2026-04-25 18:00 | 58.35798 | -134.58387 | 32 ft | 0 kts | 347° |
| 2026-04-25 18:00 | 58.35799 | -134.58387 | 32 ft | 0 kts | 348° |
| 2026-04-25 18:00 | 58.35800 | -134.58386 | 32 ft | 0 kts | 358° |
| 2026-04-25 18:01 | 58.35802 | -134.58386 | 32 ft | 0 kts | 359° |
| 2026-04-25 18:01 | 58.35803 | -134.58386 | 32 ft | 0 kts | 359° |
| 2026-04-25 18:01 | 58.35804 | -134.58386 | 32 ft | 0 kts | 359° |
| 2026-04-25 18:02 | 58.35805 | -134.58386 | 32 ft | 0 kts | 359° |
| 2026-04-25 18:02 | 58.35806 | -134.58386 | 32 ft | 0 kts | 2° |
| 2026-04-25 18:02 | 58.35807 | -134.58385 | 32 ft | 0 kts | 4° |
| 2026-04-25 18:03 | 58.35808 | -134.58385 | 32 ft | 0 kts | 5° |
| 2026-04-25 18:03 | 58.35809 | -134.58385 | 32 ft | 0 kts | 5° |
| 2026-04-25 18:03 | 58.35824 | -134.58378 | 32 ft | 0 kts | 25° |
| 2026-04-25 18:03 | 58.35825 | -134.58378 | 32 ft | 0 kts | 24° |
| 2026-04-25 18:04 | 58.35826 | -134.58378 | 32 ft | 0 kts | 17° |